sensor_id;sensor_type;location;lat;lon;timestamp;P1;durP1;ratioP1;P2;durP2;ratioP2
57339;SDS011;43174;50.930;18.170;2023-09-12T00:01:18;17.70;;;16.60;;
57339;SDS011;43174;50.930;18.170;2023-09-12T00:11:06;24.30;;;22.80;;
57339;SDS011;43174;50.930;18.170;2023-09-12T00:20:52;23.10;;;21.30;;
57339;SDS011;43174;50.930;18.170;2023-09-12T00:30:33;16.70;;;15.70;;
57339;SDS011;43174;50.930;18.170;2023-09-12T00:40:16;18.20;;;17.20;;
57339;SDS011;43174;50.930;18.170;2023-09-12T00:49:57;22.40;;;21.00;;
57339;SDS011;43174;50.930;18.170;2023-09-12T00:59:39;23.20;;;21.70;;
57339;SDS011;43174;50.930;18.170;2023-09-12T01:09:21;20.60;;;19.40;;
57339;SDS011;43174;50.930;18.170;2023-09-12T01:16:37;30.40;;;28.30;;
57339;SDS011;43174;50.930;18.170;2023-09-12T01:45:49;15.80;;;14.60;;
57339;SDS011;43174;50.930;18.170;2023-09-12T01:55:32;21.50;;;20.50;;
57339;SDS011;43174;50.930;18.170;2023-09-12T02:05:15;23.60;;;22.20;;
57339;SDS011;43174;50.930;18.170;2023-09-12T02:12:35;30.70;;;28.10;;
57339;SDS011;43174;50.930;18.170;2023-09-12T02:22:17;22.50;;;21.20;;
57339;SDS011;43174;50.930;18.170;2023-09-12T02:31:59;19.10;;;18.00;;
57339;SDS011;43174;50.930;18.170;2023-09-12T02:41:41;21.00;;;19.70;;
57339;SDS011;43174;50.930;18.170;2023-09-12T02:51:22;27.80;;;25.40;;
57339;SDS011;43174;50.930;18.170;2023-09-12T03:01:06;26.80;;;24.90;;
57339;SDS011;43174;50.930;18.170;2023-09-12T03:10:52;32.70;;;21.50;;
57339;SDS011;43174;50.930;18.170;2023-09-12T03:20:37;20.80;;;19.60;;
57339;SDS011;43174;50.930;18.170;2023-09-12T03:30:19;21.30;;;19.90;;
57339;SDS011;43174;50.930;18.170;2023-09-12T03:40:06;23.40;;;21.50;;
57339;SDS011;43174;50.930;18.170;2023-09-12T03:49:48;22.30;;;20.70;;
57339;SDS011;43174;50.930;18.170;2023-09-12T03:59:30;21.10;;;19.70;;
57339;SDS011;43174;50.930;18.170;2023-09-12T04:09:12;24.40;;;22.80;;
57339;SDS011;43174;50.930;18.170;2023-09-12T04:18:54;21.60;;;19.80;;
57339;SDS011;43174;50.930;18.170;2023-09-12T04:28:36;21.40;;;19.20;;
57339;SDS011;43174;50.930;18.170;2023-09-12T04:38:18;23.40;;;21.50;;
57339;SDS011;43174;50.930;18.170;2023-09-12T04:48:02;21.90;;;20.40;;
57339;SDS011;43174;50.930;18.170;2023-09-12T04:57:44;22.70;;;20.80;;
57339;SDS011;43174;50.930;18.170;2023-09-12T05:07:26;19.90;;;18.70;;
57339;SDS011;43174;50.930;18.170;2023-09-12T05:17:08;20.70;;;19.00;;
57339;SDS011;43174;50.930;18.170;2023-09-12T05:26:51;19.20;;;17.70;;
57339;SDS011;43174;50.930;18.170;2023-09-12T05:36:32;16.90;;;16.10;;
57339;SDS011;43174;50.930;18.170;2023-09-12T05:46:14;18.00;;;16.50;;
57339;SDS011;43174;50.930;18.170;2023-09-12T05:55:57;16.00;;;14.50;;
57339;SDS011;43174;50.930;18.170;2023-09-12T06:05:39;14.40;;;13.60;;
57339;SDS011;43174;50.930;18.170;2023-09-12T06:15:21;13.80;;;13.10;;
57339;SDS011;43174;50.930;18.170;2023-09-12T06:25:03;26.30;;;12.30;;
57339;SDS011;43174;50.930;18.170;2023-09-12T06:34:47;14.70;;;14.00;;
57339;SDS011;43174;50.930;18.170;2023-09-12T06:44:29;35.70;;;23.50;;
57339;SDS011;43174;50.930;18.170;2023-09-12T06:54:11;14.40;;;12.90;;
57339;SDS011;43174;50.930;18.170;2023-09-12T07:03:53;15.70;;;14.10;;
57339;SDS011;43174;50.930;18.170;2023-09-12T07:13:37;11.40;;;10.60;;
57339;SDS011;43174;50.930;18.170;2023-09-12T07:21:02;13.20;;;12.20;;
57339;SDS011;43174;50.930;18.170;2023-09-12T07:30:45;12.30;;;11.70;;
57339;SDS011;43174;50.930;18.170;2023-09-12T07:40:27;8.60;;;8.10;;
57339;SDS011;43174;50.930;18.170;2023-09-12T07:50:10;9.10;;;8.60;;
57339;SDS011;43174;50.930;18.170;2023-09-12T07:59:53;7.10;;;6.60;;
57339;SDS011;43174;50.930;18.170;2023-09-12T08:09:48;8.20;;;7.70;;
57339;SDS011;43174;50.930;18.170;2023-09-12T08:19:30;4.30;;;4.10;;
57339;SDS011;43174;50.930;18.170;2023-09-12T08:29:12;8.40;;;5.70;;
57339;SDS011;43174;50.930;18.170;2023-09-12T08:38:55;16.50;;;5.90;;
57339;SDS011;43174;50.930;18.170;2023-09-12T08:48:37;5.50;;;5.20;;
57339;SDS011;43174;50.930;18.170;2023-09-12T08:58:20;5.90;;;5.60;;
57339;SDS011;43174;50.930;18.170;2023-09-12T09:08:03;4.40;;;4.10;;
57339;SDS011;43174;50.930;18.170;2023-09-12T09:17:48;3.80;;;3.40;;
57339;SDS011;43174;50.930;18.170;2023-09-12T09:27:32;7.80;;;6.90;;
57339;SDS011;43174;50.930;18.170;2023-09-12T09:37:16;8.00;;;5.20;;
57339;SDS011;43174;50.930;18.170;2023-09-12T09:47:02;10.00;;;5.30;;
57339;SDS011;43174;50.930;18.170;2023-09-12T09:56:45;4.50;;;4.30;;
57339;SDS011;43174;50.930;18.170;2023-09-12T10:06:28;4.80;;;4.50;;
57339;SDS011;43174;50.930;18.170;2023-09-12T10:16:11;4.30;;;4.10;;
57339;SDS011;43174;50.930;18.170;2023-09-12T10:21:04;7.00;;;6.30;;
57339;SDS011;43174;50.930;18.170;2023-09-12T10:30:50;4.30;;;4.10;;
57339;SDS011;43174;50.930;18.170;2023-09-12T10:40:36;5.80;;;5.50;;
57339;SDS011;43174;50.930;18.170;2023-09-12T10:50:19;5.80;;;5.50;;
57339;SDS011;43174;50.930;18.170;2023-09-12T11:10:05;5.40;;;4.90;;
57339;SDS011;43174;50.930;18.170;2023-09-12T11:19:52;6.20;;;5.70;;
57339;SDS011;43174;50.930;18.170;2023-09-12T11:29:37;4.40;;;4.20;;
57339;SDS011;43174;50.930;18.170;2023-09-12T11:39:23;5.20;;;4.80;;
57339;SDS011;43174;50.930;18.170;2023-09-12T11:49:09;4.90;;;4.60;;
57339;SDS011;43174;50.930;18.170;2023-09-12T11:58:53;6.30;;;6.00;;
57339;SDS011;43174;50.930;18.170;2023-09-12T12:08:43;5.40;;;5.00;;
57339;SDS011;43174;50.930;18.170;2023-09-12T12:18:25;17.20;;;13.30;;
57339;SDS011;43174;50.930;18.170;2023-09-12T12:28:08;5.50;;;5.20;;
57339;SDS011;43174;50.930;18.170;2023-09-12T12:37:52;5.50;;;5.30;;
57339;SDS011;43174;50.930;18.170;2023-09-12T12:47:39;4.70;;;4.30;;
57339;SDS011;43174;50.930;18.170;2023-09-12T12:57:22;4.20;;;3.90;;
57339;SDS011;43174;50.930;18.170;2023-09-12T13:07:04;5.60;;;5.30;;
57339;SDS011;43174;50.930;18.170;2023-09-12T13:16:45;6.30;;;5.90;;
57339;SDS011;43174;50.930;18.170;2023-09-12T13:21:38;9.60;;;6.50;;
57339;SDS011;43174;50.930;18.170;2023-09-12T13:31:22;5.10;;;4.80;;
57339;SDS011;43174;50.930;18.170;2023-09-12T13:41:05;3.00;;;2.90;;
57339;SDS011;43174;50.930;18.170;2023-09-12T13:50:47;17.10;;;6.80;;
57339;SDS011;43174;50.930;18.170;2023-09-12T14:00:29;6.10;;;5.80;;
57339;SDS011;43174;50.930;18.170;2023-09-12T14:10:12;5.90;;;5.50;;
57339;SDS011;43174;50.930;18.170;2023-09-12T14:19:54;5.90;;;5.60;;
57339;SDS011;43174;50.930;18.170;2023-09-12T14:29:38;4.90;;;4.70;;
57339;SDS011;43174;50.930;18.170;2023-09-12T14:39:20;7.20;;;6.80;;
57339;SDS011;43174;50.930;18.170;2023-09-12T14:49:08;8.30;;;7.90;;
57339;SDS011;43174;50.930;18.170;2023-09-12T14:58:53;4.90;;;4.70;;
57339;SDS011;43174;50.930;18.170;2023-09-12T15:08:36;0.70;;;0.70;;
57339;SDS011;43174;50.930;18.170;2023-09-12T15:18:18;3.80;;;3.60;;
57339;SDS011;43174;50.930;18.170;2023-09-12T15:28:01;5.00;;;4.70;;
57339;SDS011;43174;50.930;18.170;2023-09-12T15:37:44;5.40;;;5.10;;
57339;SDS011;43174;50.930;18.170;2023-09-12T15:47:26;8.10;;;3.90;;
57339;SDS011;43174;50.930;18.170;2023-09-12T15:57:07;5.20;;;4.70;;
57339;SDS011;43174;50.930;18.170;2023-09-12T16:06:52;4.80;;;4.50;;
57339;SDS011;43174;50.930;18.170;2023-09-12T16:16:34;9.20;;;8.60;;
57339;SDS011;43174;50.930;18.170;2023-09-12T16:23:53;10.30;;;6.80;;
57339;SDS011;43174;50.930;18.170;2023-09-12T16:33:36;7.00;;;6.50;;
57339;SDS011;43174;50.930;18.170;2023-09-12T16:43:18;8.50;;;7.90;;
57339;SDS011;43174;50.930;18.170;2023-09-12T16:53:01;5.90;;;5.60;;
57339;SDS011;43174;50.930;18.170;2023-09-12T17:02:47;7.50;;;6.80;;
57339;SDS011;43174;50.930;18.170;2023-09-12T17:12:29;23.30;;;12.80;;
57339;SDS011;43174;50.930;18.170;2023-09-12T17:22:14;38.10;;;15.40;;
57339;SDS011;43174;50.930;18.170;2023-09-12T17:32:01;9.60;;;9.10;;
57339;SDS011;43174;50.930;18.170;2023-09-12T17:41:50;11.10;;;10.10;;
57339;SDS011;43174;50.930;18.170;2023-09-12T17:51:31;21.30;;;10.10;;
57339;SDS011;43174;50.930;18.170;2023-09-12T18:01:14;19.30;;;9.30;;
57339;SDS011;43174;50.930;18.170;2023-09-12T18:10:57;50.20;;;14.30;;
57339;SDS011;43174;50.930;18.170;2023-09-12T18:20:40;11.60;;;11.00;;
57339;SDS011;43174;50.930;18.170;2023-09-12T18:30:22;15.30;;;13.80;;
57339;SDS011;43174;50.930;18.170;2023-09-12T18:40:04;13.90;;;13.00;;
57339;SDS011;43174;50.930;18.170;2023-09-12T18:49:48;13.60;;;12.90;;
57339;SDS011;43174;50.930;18.170;2023-09-12T18:59:30;13.30;;;12.60;;
57339;SDS011;43174;50.930;18.170;2023-09-12T19:09:12;13.00;;;11.70;;
57339;SDS011;43174;50.930;18.170;2023-09-12T19:18:55;17.20;;;16.20;;
57339;SDS011;43174;50.930;18.170;2023-09-12T19:26:13;20.20;;;18.70;;
57339;SDS011;43174;50.930;18.170;2023-09-12T19:35:56;17.60;;;16.10;;
57339;SDS011;43174;50.930;18.170;2023-09-12T19:45:38;18.20;;;16.90;;
57339;SDS011;43174;50.930;18.170;2023-09-12T19:55:21;13.70;;;13.10;;
57339;SDS011;43174;50.930;18.170;2023-09-12T20:05:05;16.00;;;15.10;;
57339;SDS011;43174;50.930;18.170;2023-09-12T20:14:48;16.20;;;15.30;;
57339;SDS011;43174;50.930;18.170;2023-09-12T20:24:30;16.90;;;16.10;;
57339;SDS011;43174;50.930;18.170;2023-09-12T20:34:14;22.10;;;16.90;;
57339;SDS011;43174;50.930;18.170;2023-09-12T20:43:56;19.60;;;18.00;;
57339;SDS011;43174;50.930;18.170;2023-09-12T20:53:40;16.90;;;15.90;;
57339;SDS011;43174;50.930;18.170;2023-09-12T21:03:23;18.20;;;17.20;;
57339;SDS011;43174;50.930;18.170;2023-09-12T21:13:05;17.00;;;16.10;;
57339;SDS011;43174;50.930;18.170;2023-09-12T21:22:47;15.80;;;14.90;;
57339;SDS011;43174;50.930;18.170;2023-09-12T21:32:30;13.00;;;12.20;;
57339;SDS011;43174;50.930;18.170;2023-09-12T21:42:11;13.60;;;12.80;;
57339;SDS011;43174;50.930;18.170;2023-09-12T21:51:59;13.50;;;12.80;;
57339;SDS011;43174;50.930;18.170;2023-09-12T22:01:44;13.10;;;12.00;;
57339;SDS011;43174;50.930;18.170;2023-09-12T22:11:30;13.20;;;12.60;;
57339;SDS011;43174;50.930;18.170;2023-09-12T22:21:11;14.50;;;13.40;;
57339;SDS011;43174;50.930;18.170;2023-09-12T22:28:28;17.60;;;16.30;;
57339;SDS011;43174;50.930;18.170;2023-09-12T22:38:13;14.70;;;13.60;;
57339;SDS011;43174;50.930;18.170;2023-09-12T22:47:55;15.40;;;13.80;;
57339;SDS011;43174;50.930;18.170;2023-09-12T22:57:37;14.10;;;13.30;;
57339;SDS011;43174;50.930;18.170;2023-09-12T23:07:19;16.70;;;14.20;;
57339;SDS011;43174;50.930;18.170;2023-09-12T23:17:00;14.20;;;13.60;;
57339;SDS011;43174;50.930;18.170;2023-09-12T23:26:43;23.90;;;16.20;;
57339;SDS011;43174;50.930;18.170;2023-09-12T23:36:25;14.80;;;14.00;;
57339;SDS011;43174;50.930;18.170;2023-09-12T23:38:52;22.60;;;20.60;;
57339;SDS011;43174;50.930;18.170;2023-09-12T23:48:33;16.40;;;15.50;;
57339;SDS011;43174;50.930;18.170;2023-09-12T23:58:15;18.70;;;17.50;;
